Terminal Aerodrome Forecast
Issued by NWS Charleston, WV

Home | Current Version | Previous Version | Text Only | Print | Product List | Glossary On
Versions: 1 2 3 4 5 6 7 8 9 10 11 12 13 14 15 16 17 18 19 20 21 22 23
000
FTUS41 KRLX 020500
TAFCRW
TAF
KCRW 020538Z 0206/0306 00000KT 1/4SM FG VV001
     FM021200 00000KT 2SM BR BKN002
     FM021300 00000KT 4SM BR SCT002
     FM021400 VRB02KT 6SM HZ SCT250
     FM021700 25004KT P6SM FEW050 SCT250
     FM022200 12004KT P6SM BKN250
     FM030500 15005KT P6SM SCT100 BKN250=

USA.gov is the U.S. government's official web portal to all federal, state and local government web resources and services.